Time;durP1;ratioP1;P1;durP2;ratioP2;P2;SDS_P1;SDS_P2;PMS_P1;PMS_P2;Temp;Humidity;BMP_temperature;BMP_pressure;BME280_temperature;BME280_humidity;BME280_pressure;Samples;Min_cycle;Max_cycle;Signal;HPM_P1;HPM_P2
2021/12/25 00:01:39;;;;;;;13.37;5.20;;;0.50;99.90;;;;;;5011956;28;20328;-74
2021/12/25 00:04:28;;;;;;;11.50;4.47;;;0.40;99.90;;;;;;5012178;28;20241;-74
2021/12/25 00:07:16;;;;;;;13.03;5.00;;;0.50;99.90;;;;;;5011541;28;20249;-73
2021/12/25 00:10:04;;;;;;;11.90;5.10;;;0.50;99.90;;;;;;5020001;28;20228;-73
2021/12/25 00:12:53;;;;;;;7.30;3.90;;;0.40;99.90;;;;;;5031864;28;20681;-74
2021/12/25 00:15:42;;;;;;;7.50;3.60;;;0.40;99.90;;;;;;5031117;28;20198;-78
2021/12/25 00:18:29;;;;;;;10.47;5.10;;;0.40;99.90;;;;;;5032431;28;20228;-77
2021/12/25 00:21:18;;;;;;;9.30;4.40;;;0.40;99.90;;;;;;5030391;28;20201;-76
2021/12/25 00:24:06;;;;;;;13.40;5.70;;;0.40;99.90;;;;;;5031060;28;20198;-78
2021/12/25 00:26:59;;;;;;;11.30;5.70;;;0.40;99.90;;;;;;5031422;28;20214;-77
2021/12/25 00:29:57;;;;;;;10.60;5.80;;;0.40;99.90;;;;;;5031390;28;20256;-78
2021/12/25 00:32:53;;;;;;;8.87;5.27;;;0.40;99.90;;;;;;5032333;28;20194;-76
2021/12/25 00:35:40;;;;;;;14.93;5.83;;;0.40;99.90;;;;;;5032120;28;20243;-76
2021/12/25 00:38:31;;;;;;;14.43;5.87;;;0.40;99.90;;;;;;5031379;28;20197;-77
2021/12/25 00:41:20;;;;;;;11.83;5.33;;;0.40;99.90;;;;;;5031974;28;20202;-77
2021/12/25 00:44:07;;;;;;;14.67;7.47;;;0.30;99.90;;;;;;5031928;28;20297;-77
2021/12/25 00:46:55;;;;;;;12.47;6.83;;;0.30;99.90;;;;;;5031878;28;20257;-76
2021/12/25 00:49:42;;;;;;;12.77;7.20;;;0.30;99.90;;;;;;5031810;28;20633;-77
2021/12/25 00:52:30;;;;;;;17.90;7.53;;;0.30;99.90;;;;;;5031707;28;20197;-76
2021/12/25 00:55:19;;;;;;;16.13;7.73;;;0.20;99.90;;;;;;5031514;28;20209;-77
2021/12/25 00:58:06;;;;;;;13.13;6.60;;;0.20;99.90;;;;;;5030562;28;20194;-77
2021/12/25 01:00:54;;;;;;;15.83;7.27;;;0.20;99.90;;;;;;5030188;28;20848;-76
2021/12/25 01:03:41;;;;;;;15.57;8.30;;;0.20;99.90;;;;;;5031499;28;20205;-77
2021/12/25 01:06:29;;;;;;;15.57;7.17;;;0.20;99.90;;;;;;5030640;28;20584;-76
2021/12/25 01:09:16;;;;;;;12.80;5.97;;;0.20;99.90;;;;;;5030070;28;20284;-77
2021/12/25 01:12:06;;;;;;;12.83;7.43;;;0.20;99.90;;;;;;5032558;28;20236;-76
2021/12/25 01:14:58;;;;;;;11.77;6.77;;;0.20;99.90;;;;;;5030423;28;20205;-76
2021/12/25 01:24:16;;;;;;;14.27;6.13;;;0.20;99.90;;;;;;5030520;28;20672;-77
2021/12/25 01:30:13;;;;;;;9.13;5.37;;;0.10;99.90;;;;;;5016148;28;20236;-77
2021/12/25 01:33:25;;;;;;;15.83;7.10;;;0.10;99.90;;;;;;5010708;28;20198;-77
2021/12/25 01:39:44;;;;;;;13.27;6.30;;;0.10;99.90;;;;;;4969608;28;20621;-70
2021/12/25 01:48:43;;;;;;;11.50;5.87;;;0.10;99.90;;;;;;4979246;28;20685;-70
2021/12/25 01:51:31;;;;;;;9.73;5.90;;;0.10;99.90;;;;;;4970021;28;20211;-70
2021/12/25 01:54:19;;;;;;;10.60;5.17;;;0.10;99.90;;;;;;4969269;28;20258;-70
2021/12/25 01:57:06;;;;;;;12.17;5.00;;;0.10;99.90;;;;;;4968623;28;20231;-70
2021/12/25 01:59:55;;;;;;;9.77;5.77;;;0.00;99.90;;;;;;4969283;28;20204;-77
2021/12/25 02:02:42;;;;;;;10.03;5.70;;;0.00;99.90;;;;;;4988364;28;20211;-76
2021/12/25 02:05:30;;;;;;;9.43;5.63;;;0.00;99.90;;;;;;4988028;28;20206;-77
2021/12/25 02:08:17;;;;;;;11.27;6.53;;;0.00;99.90;;;;;;4988070;28;20226;-77
2021/12/25 02:11:06;;;;;;;12.33;6.30;;;0.00;99.90;;;;;;4987622;28;20746;-77
2021/12/25 02:13:53;;;;;;;12.27;6.20;;;0.00;99.90;;;;;;5017434;28;20201;-77
2021/12/25 02:16:52;;;;;;;11.17;6.70;;;0.00;99.90;;;;;;5029637;28;20208;-78
2021/12/25 02:19:46;;;;;;;14.47;7.50;;;0.00;99.90;;;;;;5029187;28;20201;-77
2021/12/25 02:22:33;;;;;;;11.10;5.93;;;0.00;99.90;;;;;;5030151;28;20209;-77
2021/12/25 02:25:22;;;;;;;11.90;6.27;;;-0.10;99.90;;;;;;5029519;28;20202;-78
2021/12/25 02:28:11;;;;;;;13.27;6.00;;;-0.20;99.90;;;;;;5030015;28;20590;-77
2021/12/25 02:31:00;;;;;;;10.13;5.60;;;-0.20;99.90;;;;;;5029248;28;20233;-77
2021/12/25 02:33:48;;;;;;;11.93;5.27;;;-0.30;99.90;;;;;;5028551;28;20244;-77
2021/12/25 02:36:36;;;;;;;10.17;5.87;;;-0.40;99.90;;;;;;5023470;28;20229;-77
2021/12/25 02:39:24;;;;;;;10.83;6.10;;;-0.30;99.90;;;;;;5047464;28;20826;-77
2021/12/25 02:42:12;;;;;;;12.83;6.87;;;-0.40;99.90;;;;;;5048840;28;20205;-77
2021/12/25 02:44:59;;;;;;;15.07;6.60;;;-0.40;99.90;;;;;;5032763;28;20190;-76
2021/12/25 02:47:48;;;;;;;10.93;5.83;;;-0.40;99.90;;;;;;5029433;28;20221;-76
2021/12/25 02:50:36;;;;;;;14.07;8.17;;;-0.40;99.90;;;;;;5029004;28;20197;-77
2021/12/25 02:53:25;;;;;;;13.33;7.53;;;-0.40;99.90;;;;;;5029277;28;20669;-77
2021/12/25 02:56:13;;;;;;;12.87;6.50;;;-0.40;99.90;;;;;;5029538;28;20224;-77
2021/12/25 02:59:00;;;;;;;14.83;7.97;;;-0.40;99.90;;;;;;5029288;28;20206;-77
2021/12/25 03:01:48;;;;;;;15.13;7.53;;;-0.40;99.90;;;;;;5014683;28;20618;-77
2021/12/25 03:04:37;;;;;;;14.40;7.17;;;-0.40;99.90;;;;;;5009282;28;20206;-77
2021/12/25 03:07:24;;;;;;;15.33;6.77;;;-0.40;99.90;;;;;;5008835;28;20222;-77
2021/12/25 03:10:14;;;;;;;14.20;7.23;;;-0.40;99.90;;;;;;5009851;28;20601;-77
2021/12/25 03:13:16;;;;;;;13.93;7.63;;;-0.30;99.90;;;;;;5009051;28;20290;-77
2021/12/25 03:16:07;;;;;;;14.63;7.93;;;-0.30;99.90;;;;;;5010205;28;20751;-76
2021/12/25 03:18:56;;;;;;;16.20;8.37;;;-0.30;99.90;;;;;;5013397;28;20692;-76
2021/12/25 03:21:43;;;;;;;14.80;7.73;;;-0.30;99.90;;;;;;5009643;28;20211;-78
2021/12/25 03:24:31;;;;;;;13.33;7.23;;;-0.30;99.90;;;;;;5009880;28;20699;-77
2021/12/25 03:27:20;;;;;;;13.97;7.00;;;-0.30;99.90;;;;;;5008430;28;20214;-77
2021/12/25 03:30:08;;;;;;;11.33;6.53;;;-0.30;99.90;;;;;;5009612;28;20238;-76
2021/12/25 03:32:56;;;;;;;13.53;6.73;;;-0.40;99.90;;;;;;5009641;28;20256;-76
2021/12/25 03:35:43;;;;;;;12.57;7.00;;;-0.40;99.90;;;;;;5011587;28;20263;-77
2021/12/25 03:38:31;;;;;;;9.20;5.03;;;-0.40;99.90;;;;;;5018402;28;20231;-77
2021/12/25 03:41:19;;;;;;;11.47;5.80;;;-0.50;99.90;;;;;;5028770;28;20210;-76
2021/12/25 03:44:08;;;;;;;7.97;4.23;;;-0.60;99.90;;;;;;5009109;28;20209;-76
2021/12/25 03:46:59;;;;;;;6.43;4.13;;;-0.70;99.90;;;;;;5008959;28;20257;-78
2021/12/25 03:58:57;;;;;;;6.67;3.70;;;-1.10;99.90;;;;;;5031615;28;20579;-76
2021/12/25 04:01:52;;;;;;;5.73;3.57;;;-1.20;99.90;;;;;;5032043;28;20787;-76
2021/12/25 04:04:44;;;;;;;4.83;3.20;;;-1.20;99.90;;;;;;5032301;28;20252;-77
2021/12/25 04:07:58;;;;;;;7.00;3.50;;;-1.30;99.90;;;;;;5032468;28;20296;-76
2021/12/25 04:10:49;;;;;;;5.57;2.93;;;-1.40;99.90;;;;;;5031241;28;20218;-76
2021/12/25 04:13:36;;;;;;;7.93;3.53;;;-1.50;99.90;;;;;;5032099;28;20213;-76
2021/12/25 04:16:24;;;;;;;4.00;2.73;;;-1.50;99.90;;;;;;5030527;28;20209;-75
2021/12/25 04:19:13;;;;;;;4.47;3.00;;;-1.60;99.90;;;;;;5031388;28;20206;-76
2021/12/25 04:22:04;;;;;;;5.83;3.10;;;-1.60;99.90;;;;;;5031478;28;20217;-76
2021/12/25 04:24:52;;;;;;;6.67;3.10;;;-1.70;99.90;;;;;;5032070;28;20248;-76
2021/12/25 04:27:40;;;;;;;5.23;3.37;;;-1.70;99.90;;;;;;5032262;28;20218;-76
2021/12/25 04:30:35;;;;;;;6.83;2.73;;;-1.80;99.90;;;;;;5033779;28;20238;-76
2021/12/25 04:42:41;;;;;;;6.67;3.63;;;-1.80;99.90;;;;;;5048677;28;20205;-76
2021/12/25 04:42:55;;;;;;;5.73;3.43;;;-2.10;99.90;;;;;;5031556;28;20194;-76
2021/12/25 05:04:20;;;;;;;7.30;4.37;;;-2.40;99.90;;;;;;4971512;28;20230;-76
2021/12/25 05:07:10;;;;;;;5.40;3.30;;;-2.30;99.90;;;;;;4971462;28;20302;-77
2021/12/25 05:09:59;;;;;;;8.90;3.50;;;-2.30;99.90;;;;;;4958174;28;20323;-76
2021/12/25 05:12:46;;;;;;;7.13;3.50;;;-2.40;99.90;;;;;;4971426;28;20840;-75
2021/12/25 05:15:33;;;;;;;6.40;3.73;;;-2.50;99.90;;;;;;4970573;28;20255;-76
2021/12/25 05:18:21;;;;;;;7.50;3.80;;;-2.50;99.90;;;;;;4971167;28;20200;-75
2021/12/25 05:21:09;;;;;;;5.33;2.10;;;-2.50;99.90;;;;;;4970694;28;20208;-74
2021/12/25 05:23:59;;;;;;;4.97;2.90;;;-2.60;99.90;;;;;;4971197;28;20681;-75
2021/12/25 05:26:46;;;;;;;5.30;2.80;;;-2.60;99.90;;;;;;4970083;28;20672;-75
2021/12/25 05:29:34;;;;;;;6.00;2.50;;;-2.80;99.90;;;;;;5023810;28;20638;-75
2021/12/25 05:32:22;;;;;;;6.47;2.80;;;-2.80;99.90;;;;;;5030014;28;20213;-75
2021/12/25 05:35:10;;;;;;;7.50;2.63;;;-2.90;99.90;;;;;;5029936;28;20206;-75
2021/12/25 05:37:59;;;;;;;3.87;2.30;;;-2.90;99.90;;;;;;5029830;28;20581;-75
2021/12/25 05:40:48;;;;;;;5.90;2.20;;;-2.90;99.90;;;;;;5030102;28;20210;-75
2021/12/25 05:43:36;;;;;;;3.53;2.20;;;-2.90;99.90;;;;;;5030334;28;20206;-74
2021/12/25 05:46:24;;;;;;;4.50;2.53;;;-3.00;99.90;;;;;;5030706;28;20209;-75
2021/12/25 05:49:11;;;;;;;6.70;2.80;;;-3.00;99.90;;;;;;5030050;28;20216;-74
2021/12/25 05:51:59;;;;;;;4.30;2.43;;;-3.00;99.90;;;;;;5029229;28;20572;-75
2021/12/25 05:54:46;;;;;;;7.93;2.43;;;-3.00;99.90;;;;;;5031236;28;20712;-74
2021/12/25 05:57:35;;;;;;;14.10;3.30;;;-3.00;99.90;;;;;;5030779;28;20259;-74
2021/12/25 06:00:23;;;;;;;9.13;2.90;;;-3.00;99.90;;;;;;5030194;28;20293;-75
2021/12/25 06:03:10;;;;;;;4.97;2.63;;;-3.10;99.90;;;;;;5030517;28;20210;-75
2021/12/25 06:05:58;;;;;;;6.60;2.70;;;-3.10;99.90;;;;;;5029804;28;20209;-76
2021/12/25 06:08:45;;;;;;;12.33;3.53;;;-3.10;99.90;;;;;;5028795;28;20345;-76
2021/12/25 06:11:33;;;;;;;5.53;2.77;;;-3.10;99.90;;;;;;5010782;28;20270;-77
2021/12/25 06:14:22;;;;;;;8.43;2.97;;;-3.10;99.90;;;;;;5009555;28;20202;-77
2021/12/25 06:17:09;;;;;;;8.80;3.53;;;-3.10;99.90;;;;;;5009454;28;20211;-77
2021/12/25 06:19:57;;;;;;;6.00;3.03;;;-3.10;99.90;;;;;;5008850;28;20191;-77
2021/12/25 06:22:44;;;;;;;6.80;3.03;;;-3.00;99.90;;;;;;5009304;28;20239;-75
2021/12/25 06:25:32;;;;;;;5.37;2.70;;;-3.10;99.90;;;;;;5010560;28;20737;-76
2021/12/25 06:28:20;;;;;;;5.23;2.63;;;-3.20;99.90;;;;;;5010335;28;20672;-76
2021/12/25 06:31:09;;;;;;;6.87;2.20;;;-3.20;99.90;;;;;;5010354;28;20216;-75
2021/12/25 06:33:57;;;;;;;4.63;2.53;;;-3.30;99.90;;;;;;5026676;28;20206;-76
2021/12/25 06:36:44;;;;;;;6.20;2.70;;;-3.40;99.90;;;;;;5027184;28;20264;-76
2021/12/25 06:39:32;;;;;;;5.83;2.90;;;-3.40;99.90;;;;;;5010184;28;20963;-74
2021/12/25 06:42:19;;;;;;;5.53;2.67;;;-3.40;99.90;;;;;;5009610;28;20209;-76
2021/12/25 06:45:08;;;;;;;6.63;3.10;;;-3.50;99.90;;;;;;5017667;28;20210;-76
2021/12/25 06:47:57;;;;;;;4.97;2.80;;;-3.60;99.90;;;;;;5029041;28;20332;-76
2021/12/25 06:50:44;;;;;;;5.20;3.03;;;-3.60;99.90;;;;;;5028546;28;20243;-76
2021/12/25 06:53:32;;;;;;;8.27;3.67;;;-3.60;99.90;;;;;;5030749;28;20808;-76
2021/12/25 06:56:20;;;;;;;7.63;3.77;;;-3.60;99.90;;;;;;5029340;28;20204;-74
2021/12/25 06:59:07;;;;;;;7.37;3.17;;;-3.60;99.90;;;;;;5028762;28;20998;-74
2021/12/25 07:01:55;;;;;;;7.80;2.40;;;-3.60;99.90;;;;;;5029822;28;20214;-74
2021/12/25 07:04:44;;;;;;;6.63;3.27;;;-3.60;99.90;;;;;;5028088;28;20198;-75
2021/12/25 07:07:32;;;;;;;16.27;5.07;;;-3.60;99.90;;;;;;5028256;28;20254;-76
2021/12/25 07:10:20;;;;;;;42.80;11.27;;;-3.60;99.90;;;;;;5028839;28;20234;-76
2021/12/25 07:13:15;;;;;;;31.23;10.53;;;-3.60;99.90;;;;;;5029023;28;20213;-76
2021/12/25 07:16:03;;;;;;;14.00;6.60;;;-3.50;99.90;;;;;;5029195;28;20574;-76
2021/12/25 07:18:50;;;;;;;20.83;7.87;;;-3.50;99.90;;;;;;5028506;28;20209;-76
2021/12/25 07:21:39;;;;;;;18.67;6.73;;;-3.50;99.90;;;;;;5028367;28;20243;-76
2021/12/25 07:24:27;;;;;;;26.73;9.50;;;-3.50;99.90;;;;;;5029874;28;20210;-76
2021/12/25 07:27:14;;;;;;;22.80;9.37;;;-3.40;99.90;;;;;;5033345;28;20194;-75
2021/12/25 07:30:03;;;;;;;28.03;11.30;;;-3.40;99.90;;;;;;5013683;28;20241;-75
2021/12/25 07:32:50;;;;;;;17.10;6.87;;;-3.50;99.90;;;;;;5013192;28;20585;-76
2021/12/25 07:35:38;;;;;;;13.47;5.60;;;-3.50;99.90;;;;;;5013648;28;20205;-75
2021/12/25 07:38:27;;;;;;;11.73;5.80;;;-3.40;99.90;;;;;;5017468;28;20217;-75
2021/12/25 07:41:20;;;;;;;11.23;5.37;;;-3.40;99.90;;;;;;5012000;28;20207;-75
2021/12/25 07:44:08;;;;;;;10.87;5.23;;;-3.40;99.90;;;;;;5017767;28;20195;-75
2021/12/25 07:46:56;;;;;;;8.77;5.47;;;-3.30;99.90;;;;;;5032408;28;20198;-75
2021/12/25 07:49:43;;;;;;;5.00;2.77;;;-3.30;99.90;;;;;;5032507;28;20222;-75
2021/12/25 07:52:31;;;;;;;5.63;2.63;;;-3.30;99.90;;;;;;5029246;28;20205;-76
2021/12/25 07:55:20;;;;;;;5.20;2.60;;;-3.30;99.90;;;;;;5031548;28;20204;-75
2021/12/25 07:58:08;;;;;;;3.93;1.90;;;-3.30;99.90;;;;;;5031880;28;20263;-76
2021/12/25 08:00:55;;;;;;;4.10;2.23;;;-3.30;99.90;;;;;;5032316;28;20198;-75
2021/12/25 08:03:42;;;;;;;6.83;2.87;;;-3.30;99.90;;;;;;5031684;28;20212;-75
2021/12/25 08:06:31;;;;;;;6.87;2.70;;;-3.40;99.90;;;;;;5031597;28;20198;-76
2021/12/25 08:09:27;;;;;;;7.13;3.40;;;-3.50;99.90;;;;;;5031310;28;20218;-76
2021/12/25 08:12:27;;;;;;;12.57;5.03;;;-3.40;99.90;;;;;;4991246;28;20259;-75
2021/12/25 08:15:15;;;;;;;12.77;4.83;;;-3.30;99.90;;;;;;4990193;28;20211;-75
2021/12/25 08:18:03;;;;;;;10.77;4.93;;;-3.20;99.90;;;;;;4990878;28;20208;-73
2021/12/25 08:20:51;;;;;;;10.87;3.93;;;-3.10;99.90;;;;;;4990877;28;20616;-73
2021/12/25 08:23:38;;;;;;;11.93;5.00;;;-2.90;99.90;;;;;;4990689;28;20343;-73
2021/12/25 08:26:26;;;;;;;10.43;4.50;;;-2.80;99.90;;;;;;4991169;28;20338;-74
2021/12/25 08:29:15;;;;;;;13.27;4.23;;;-2.80;99.90;;;;;;4992346;28;20370;-74
2021/12/25 08:32:02;;;;;;;7.23;3.20;;;-2.70;99.90;;;;;;5031261;28;20198;-74
2021/12/25 08:34:50;;;;;;;8.10;3.43;;;-2.50;99.90;;;;;;5032147;28;20201;-73
2021/12/25 08:37:38;;;;;;;8.33;2.93;;;-2.60;99.90;;;;;;5029186;28;20590;-75
2021/12/25 08:40:27;;;;;;;6.27;2.53;;;-2.70;99.90;;;;;;5012002;28;20202;-73
2021/12/25 08:43:16;;;;;;;7.07;3.00;;;-2.70;99.90;;;;;;5015408;28;20202;-75
2021/12/25 08:46:13;;;;;;;13.30;2.43;;;-2.80;99.90;;;;;;5031668;28;20198;-73
2021/12/25 08:49:01;;;;;;;5.23;2.50;;;-2.80;99.90;;;;;;5030515;28;20527;-73
2021/12/25 08:51:49;;;;;;;6.70;2.67;;;-2.90;99.90;;;;;;5030960;28;20198;-74
2021/12/25 08:54:36;;;;;;;9.17;3.33;;;-2.90;99.90;;;;;;5029797;28;20202;-74
2021/12/25 08:57:24;;;;;;;6.77;2.80;;;-2.90;99.90;;;;;;5030909;28;20581;-74
2021/12/25 09:00:12;;;;;;;9.00;3.17;;;-2.80;99.90;;;;;;5020377;28;20661;-74
2021/12/25 09:03:01;;;;;;;9.07;3.53;;;-2.70;99.90;;;;;;5012959;28;20209;-74
2021/12/25 09:05:49;;;;;;;7.57;3.10;;;-2.60;99.90;;;;;;5011477;28;20574;-74
2021/12/25 09:08:37;;;;;;;9.17;3.50;;;-2.40;99.90;;;;;;5012675;28;20214;-74
2021/12/25 09:11:24;;;;;;;9.87;3.60;;;-2.30;99.90;;;;;;5011064;28;20222;-72
2021/12/25 09:14:12;;;;;;;8.83;3.70;;;-2.10;99.90;;;;;;5010748;28;20654;-72
2021/12/25 09:17:00;;;;;;;9.50;3.50;;;-1.90;99.90;;;;;;5016353;28;20202;-72
2021/12/25 09:19:49;;;;;;;7.97;3.60;;;-1.70;99.90;;;;;;5030399;28;20600;-72
2021/12/25 09:22:37;;;;;;;9.10;4.53;;;-1.60;99.90;;;;;;5030832;28;20209;-72
2021/12/25 09:25:25;;;;;;;10.30;3.77;;;-1.60;99.90;;;;;;5030280;28;20202;-73
2021/12/25 09:28:13;;;;;;;9.13;3.67;;;-1.50;99.90;;;;;;5030788;28;20348;-72
2021/12/25 09:31:01;;;;;;;10.93;3.67;;;-1.40;99.90;;;;;;5030550;28;20257;-72
2021/12/25 09:33:49;;;;;;;11.10;4.30;;;-1.50;99.90;;;;;;5030500;28;20657;-71
2021/12/25 09:36:38;;;;;;;10.13;3.57;;;-1.50;99.90;;;;;;5029598;28;20209;-74
2021/12/25 09:39:26;;;;;;;10.80;3.87;;;-1.40;99.90;;;;;;5030251;28;20205;-74
2021/12/25 09:42:13;;;;;;;9.27;4.40;;;-1.50;99.90;;;;;;5030006;28;20660;-74
2021/12/25 09:45:01;;;;;;;7.90;3.90;;;-1.50;99.90;;;;;;5030450;28;20198;-74
2021/12/25 09:47:48;;;;;;;10.07;3.70;;;-1.40;99.90;;;;;;5030253;28;20216;-74
2021/12/25 09:50:36;;;;;;;11.40;3.93;;;-1.50;99.90;;;;;;5030301;28;20213;-72
2021/12/25 09:53:26;;;;;;;10.83;3.90;;;-1.50;99.90;;;;;;5030518;28;20205;-73
2021/12/25 09:56:14;;;;;;;9.27;3.83;;;-1.60;99.90;;;;;;5029691;28;20218;-74
2021/12/25 09:59:03;;;;;;;17.33;6.57;;;-1.50;99.90;;;;;;5030080;28;20373;-74
2021/12/25 10:01:52;;;;;;;14.37;5.93;;;-1.50;99.90;;;;;;5029763;28;20690;-71
2021/12/25 10:04:41;;;;;;;16.67;6.47;;;-1.40;99.90;;;;;;5029810;28;20649;-74
2021/12/25 10:07:30;;;;;;;19.47;8.00;;;-1.30;99.90;;;;;;5029814;28;20208;-72
2021/12/25 10:10:19;;;;;;;14.37;6.27;;;-1.20;99.90;;;;;;5029785;28;20727;-74
2021/12/25 10:13:19;;;;;;;14.27;6.47;;;-1.20;99.90;;;;;;5029395;28;20198;-74
2021/12/25 10:16:21;;;;;;;15.00;6.00;;;-1.10;99.90;;;;;;5030076;28;20205;-74
2021/12/25 10:19:16;;;;;;;15.20;6.90;;;-1.00;99.90;;;;;;5029194;28;20284;-74
2021/12/25 10:22:05;;;;;;;15.13;6.80;;;-1.00;99.90;;;;;;5030049;28;21014;-74
2021/12/25 10:25:05;;;;;;;15.43;5.77;;;-0.80;99.90;;;;;;5029261;28;20206;-71
2021/12/25 10:27:56;;;;;;;12.23;5.17;;;-1.00;99.90;;;;;;5029814;28;20669;-72
2021/12/25 10:30:54;;;;;;;14.53;5.43;;;-1.30;99.90;;;;;;5046164;28;20724;-72
2021/12/25 10:33:44;;;;;;;19.13;6.73;;;-1.30;99.90;;;;;;5029396;28;20665;-72
2021/12/25 10:36:33;;;;;;;17.70;6.23;;;-1.30;99.90;;;;;;5029667;28;20212;-72
2021/12/25 10:39:21;;;;;;;14.97;6.23;;;-1.30;99.90;;;;;;5025133;28;20194;-72
2021/12/25 10:42:12;;;;;;;19.97;7.37;;;-1.30;99.90;;;;;;5010974;28;20232;-72
2021/12/25 10:45:05;;;;;;;16.47;6.50;;;-1.40;99.90;;;;;;5010415;28;20285;-71
2021/12/25 10:48:04;;;;;;;11.73;5.20;;;-1.30;99.90;;;;;;5009606;28;20678;-74
2021/12/25 10:50:51;;;;;;;14.33;6.13;;;-1.10;99.90;;;;;;5030351;28;20220;-74
2021/12/25 10:53:42;;;;;;;14.87;5.80;;;-1.00;99.90;;;;;;5048466;28;20215;-73
2021/12/25 10:56:36;;;;;;;11.97;5.63;;;-0.70;99.90;;;;;;5049207;28;20268;-72
2021/12/25 10:59:24;;;;;;;11.70;4.77;;;-0.70;99.90;;;;;;5049318;28;20240;-73
2021/12/25 11:02:29;;;;;;;12.10;4.80;;;-0.80;99.90;;;;;;5048640;28;20572;-71
2021/12/25 11:05:19;;;;;;;12.00;4.23;;;-1.00;99.90;;;;;;5048469;28;20745;-74
2021/12/25 11:08:08;;;;;;;11.63;4.53;;;-1.10;99.90;;;;;;5049538;28;20204;-74
2021/12/25 11:10:57;;;;;;;12.93;5.23;;;-1.10;99.90;;;;;;5048998;28;20225;-73
2021/12/25 11:13:49;;;;;;;12.73;5.03;;;-1.00;99.90;;;;;;5049351;28;20205;-72
2021/12/25 11:16:39;;;;;;;12.47;5.30;;;-1.00;99.90;;;;;;5048509;28;20200;-72
2021/12/25 11:19:34;;;;;;;12.97;5.13;;;-1.10;99.90;;;;;;5049207;28;20205;-72
2021/12/25 11:22:22;;;;;;;12.50;5.30;;;-1.20;99.90;;;;;;5049119;28;20631;-72
2021/12/25 11:25:09;;;;;;;15.07;5.40;;;-1.30;99.90;;;;;;5049467;28;20201;-73
2021/12/25 11:27:57;;;;;;;11.33;5.07;;;-1.30;99.90;;;;;;5034842;28;20198;-72
2021/12/25 11:30:46;;;;;;;14.13;5.03;;;-1.40;99.90;;;;;;5028655;28;20240;-74
2021/12/25 11:33:33;;;;;;;14.70;5.50;;;-1.40;99.90;;;;;;5029453;28;20221;-71
2021/12/25 11:36:22;;;;;;;14.90;5.63;;;-1.40;99.90;;;;;;5029227;28;20579;-73
2021/12/25 11:39:10;;;;;;;16.23;5.83;;;-1.50;99.90;;;;;;5028947;28;20257;-74
2021/12/25 11:42:03;;;;;;;13.13;4.87;;;-1.50;99.90;;;;;;5029227;28;20209;-73
2021/12/25 11:44:53;;;;;;;20.07;7.27;;;-1.60;99.90;;;;;;5030172;28;20201;-74
2021/12/25 11:47:41;;;;;;;17.73;6.60;;;-1.60;99.90;;;;;;5029039;28;20209;-74
2021/12/25 11:50:39;;;;;;;17.93;6.07;;;-1.60;99.90;;;;;;5028659;28;20376;-73
2021/12/25 11:53:46;;;;;;;18.93;6.83;;;-1.60;99.90;;;;;;5028951;28;20702;-73
2021/12/25 11:56:40;;;;;;;13.87;6.57;;;-1.50;99.90;;;;;;5029170;28;20197;-74
2021/12/25 11:59:27;;;;;;;19.53;7.03;;;-1.50;99.90;;;;;;5028346;28;20337;-73
2021/12/25 12:02:39;;;;;;;24.37;9.13;;;-1.60;99.90;;;;;;5029389;28;20575;-74
2021/12/25 12:05:28;;;;;;;20.40;7.50;;;-1.60;99.90;;;;;;5018285;28;20203;-74
2021/12/25 12:08:16;;;;;;;25.80;7.43;;;-1.70;99.90;;;;;;5009089;28;20198;-73
2021/12/25 12:11:04;;;;;;;24.23;8.00;;;-1.70;99.90;;;;;;5010177;28;20226;-74
2021/12/25 12:14:12;;;;;;;23.17;7.90;;;-1.70;99.90;;;;;;5013139;28;20241;-74
2021/12/25 12:17:02;;;;;;;21.53;6.83;;;-1.70;99.90;;;;;;5012877;28;20776;-73
2021/12/25 12:20:36;;;;;;;65.13;16.47;;;-1.70;99.90;;;;;;5011409;28;20198;-73
2021/12/25 12:23:38;;;;;;;65.60;17.77;;;-1.70;99.90;;;;;;5028845;28;20213;-73
2021/12/25 12:26:52;;;;;;;36.07;11.33;;;-1.70;99.90;;;;;;5032747;28;20206;-73
2021/12/25 12:29:48;;;;;;;30.10;10.63;;;-1.80;99.90;;;;;;5032882;28;20234;-74
2021/12/25 12:32:43;;;;;;;33.03;12.47;;;-1.80;99.90;;;;;;5031974;28;20285;-74
2021/12/25 12:35:32;;;;;;;38.30;12.47;;;-1.80;99.90;;;;;;5031967;28;20540;-73
2021/12/25 12:38:28;;;;;;;80.77;23.37;;;-1.80;99.90;;;;;;5032134;28;20206;-73
2021/12/25 12:41:19;;;;;;;33.77;11.33;;;-1.80;99.90;;;;;;5031497;28;20596;-74
2021/12/25 12:44:10;;;;;;;16.13;6.30;;;-1.80;99.90;;;;;;5032346;28;20216;-73
2021/12/25 12:47:06;;;;;;;10.53;3.13;;;-2.00;99.90;;;;;;5031709;28;20193;-74
2021/12/25 12:49:57;;;;;;;8.17;2.93;;;-2.10;99.90;;;;;;5032164;28;20201;-73
2021/12/25 12:53:12;;;;;;;9.27;2.80;;;-2.10;99.90;;;;;;5032047;28;20276;-73
2021/12/25 12:56:05;;;;;;;10.77;2.93;;;-2.20;99.90;;;;;;5031924;28;20665;-73
2021/12/25 12:58:53;;;;;;;12.33;3.10;;;-2.30;99.90;;;;;;5038195;28;20198;-73
2021/12/25 13:01:42;;;;;;;12.30;3.90;;;-2.30;99.90;;;;;;5030824;28;20231;-73
2021/12/25 13:04:30;;;;;;;9.97;3.43;;;-2.30;99.90;;;;;;5031090;28;20198;-73
2021/12/25 13:07:18;;;;;;;13.63;4.17;;;-2.40;99.90;;;;;;5031121;28;20217;-74
2021/12/25 13:10:13;;;;;;;11.80;4.23;;;-2.40;99.90;;;;;;5030819;28;20553;-73
2021/12/25 13:13:08;;;;;;;13.67;4.10;;;-2.50;99.90;;;;;;5030511;28;20259;-74
2021/12/25 13:15:57;;;;;;;15.13;4.53;;;-2.50;99.90;;;;;;5030534;28;20206;-73
2021/12/25 13:18:47;;;;;;;13.87;4.67;;;-2.60;99.90;;;;;;5010437;28;20199;-74
2021/12/25 13:21:36;;;;;;;11.43;4.50;;;-2.80;99.90;;;;;;5011365;28;20200;-73
2021/12/25 13:24:23;;;;;;;14.07;4.63;;;-2.80;99.90;;;;;;5012377;28;20225;-73
2021/12/25 13:27:18;;;;;;;13.13;4.17;;;-2.80;99.90;;;;;;5010367;28;20258;-73
2021/12/25 13:30:31;;;;;;;11.60;4.13;;;-2.80;99.90;;;;;;5011267;28;20234;-74
2021/12/25 13:33:20;;;;;;;10.83;3.90;;;-2.90;99.90;;;;;;5015861;28;20214;-74
2021/12/25 13:36:12;;;;;;;14.83;4.47;;;-3.00;99.90;;;;;;5010692;28;20586;-74
2021/12/25 13:39:00;;;;;;;20.03;5.53;;;-3.10;99.90;;;;;;5011047;28;20632;-74
2021/12/25 13:41:50;;;;;;;28.30;7.70;;;-3.00;99.90;;;;;;5010818;28;20194;-74
2021/12/25 13:44:39;;;;;;;19.00;5.80;;;-3.00;99.90;;;;;;5010058;28;20670;-74
2021/12/25 13:47:28;;;;;;;22.03;4.63;;;-3.00;99.90;;;;;;5011375;28;20207;-73
2021/12/25 13:50:15;;;;;;;15.10;4.77;;;-3.00;99.90;;;;;;5018662;28;20210;-74
2021/12/25 13:53:11;;;;;;;16.77;4.93;;;-3.10;99.90;;;;;;5014926;28;20202;-74
2021/12/25 13:55:58;;;;;;;18.27;5.87;;;-3.20;99.90;;;;;;5030234;28;20198;-74
2021/12/25 13:58:46;;;;;;;18.67;4.97;;;-3.20;99.90;;;;;;5030322;28;20281;-74
2021/12/25 14:01:33;;;;;;;16.17;5.33;;;-3.30;99.90;;;;;;5029904;28;20213;-74
2021/12/25 14:04:21;;;;;;;21.50;7.00;;;-3.40;99.90;;;;;;5030522;28;20206;-74
2021/12/25 14:07:09;;;;;;;30.87;9.43;;;-3.50;99.90;;;;;;5015643;28;20209;-74
2021/12/25 14:09:59;;;;;;;26.97;7.53;;;-3.50;99.90;;;;;;5029291;28;20225;-74
2021/12/25 14:12:49;;;;;;;29.63;8.93;;;-3.60;99.90;;;;;;5029143;28;20205;-74
2021/12/25 14:15:37;;;;;;;28.20;9.43;;;-3.70;99.90;;;;;;5029962;28;20588;-74
2021/12/25 14:18:30;;;;;;;48.10;12.93;;;-3.70;99.90;;;;;;5029248;28;20213;-74
2021/12/25 14:21:19;;;;;;;42.67;13.53;;;-3.70;99.90;;;;;;5029507;28;20201;-74
2021/12/25 14:24:12;;;;;;;43.83;13.70;;;-3.80;99.90;;;;;;5029593;28;20402;-74
2021/12/25 14:27:11;;;;;;;37.40;11.83;;;-3.80;99.90;;;;;;5013983;28;20217;-74
2021/12/25 14:30:07;;;;;;;39.93;12.30;;;-3.90;99.90;;;;;;5028697;28;20236;-74
2021/12/25 14:32:55;;;;;;;42.23;13.13;;;-4.00;99.90;;;;;;5028488;28;20197;-74
2021/12/25 14:35:43;;;;;;;56.00;16.17;;;-4.00;99.90;;;;;;5028218;28;20291;-74
2021/12/25 14:38:37;;;;;;;47.60;14.50;;;-4.10;99.90;;;;;;5029238;28;20316;-74
2021/12/25 14:41:26;;;;;;;42.67;13.63;;;-4.10;99.90;;;;;;5027609;28;20613;-74
2021/12/25 14:44:20;;;;;;;50.40;15.07;;;-4.20;99.90;;;;;;5028849;28;20202;-74
2021/12/25 14:47:10;;;;;;;44.67;14.10;;;-4.20;99.90;;;;;;5015823;28;20214;-74
2021/12/25 14:49:57;;;;;;;45.27;15.33;;;-4.20;99.90;;;;;;5028662;28;20229;-74
2021/12/25 14:52:45;;;;;;;47.20;15.73;;;-4.30;99.90;;;;;;5029819;28;20190;-74
2021/12/25 14:55:34;;;;;;;59.23;17.97;;;-4.30;99.90;;;;;;5028263;28;20586;-75
2021/12/25 14:58:23;;;;;;;49.30;16.13;;;-4.40;99.90;;;;;;5028309;28;20205;-75
2021/12/25 15:01:18;;;;;;;39.07;14.20;;;-4.40;99.90;;;;;;5028640;28;20204;-75
2021/12/25 15:04:09;;;;;;;70.30;23.17;;;-4.50;99.90;;;;;;5029614;28;20281;-75
2021/12/25 15:06:57;;;;;;;69.03;22.27;;;-4.50;99.90;;;;;;5024708;28;20281;-75
2021/12/25 15:09:46;;;;;;;57.33;17.77;;;-4.50;99.90;;;;;;5010230;28;20209;-75
2021/12/25 15:12:34;;;;;;;52.97;17.37;;;-4.50;99.90;;;;;;5009758;28;20328;-75
2021/12/25 15:15:23;;;;;;;111.93;29.03;;;-4.60;99.90;;;;;;5010102;28;20221;-75
2021/12/25 15:18:12;;;;;;;83.13;21.37;;;-4.60;99.90;;;;;;5009401;28;20253;-75
2021/12/25 15:21:17;;;;;;;42.57;13.43;;;-4.60;99.90;;;;;;5009915;28;20206;-75
2021/12/25 15:24:11;;;;;;;44.97;13.63;;;-4.60;99.90;;;;;;5014117;28;20236;-75
2021/12/25 15:26:59;;;;;;;48.83;15.03;;;-4.70;99.90;;;;;;5008388;28;20626;-75
2021/12/25 15:29:47;;;;;;;52.33;15.90;;;-4.70;99.90;;;;;;5009451;28;20234;-74
2021/12/25 15:32:36;;;;;;;53.17;16.03;;;-4.70;99.90;;;;;;5010075;28;20216;-75